createdAt,value
2022-08-22T00:02:26.335Z,18.70
2022-08-22T00:02:54.357Z,18.50
2022-08-22T00:03:10.730Z,18.02
2022-08-22T00:05:07.201Z,18.02
2022-08-22T00:07:46.247Z,18.33
2022-08-22T00:10:25.637Z,18.40
2022-08-22T00:13:02.768Z,18.90
2022-08-22T00:15:43.048Z,19.17
2022-08-22T00:18:16.975Z,18.92
2022-08-22T00:20:54.154Z,18.10
2022-08-22T00:23:28.688Z,18.92
2022-08-22T00:26:05.258Z,18.30
2022-08-22T00:28:39.700Z,17.90
2022-08-22T00:31:16.137Z,18.30
2022-08-22T00:33:49.900Z,18.27
2022-08-22T00:36:25.455Z,18.50
2022-08-22T00:38:58.812Z,18.27
2022-08-22T00:41:37.964Z,18.25
2022-08-22T00:44:32.042Z,18.33
2022-08-22T00:47:19.866Z,18.57
2022-08-22T00:50:08.812Z,18.35
2022-08-22T00:53:09.409Z,18.45
2022-08-22T00:55:54.628Z,18.27
2022-08-22T00:58:54.929Z,18.38
2022-08-22T01:01:33.656Z,17.75
2022-08-22T01:04:23.837Z,18.10
2022-08-22T01:07:04.688Z,18.10
2022-08-22T01:09:47.006Z,18.45
2022-08-22T01:12:46.297Z,18.70
2022-08-22T01:15:20.814Z,18.23
2022-08-22T01:18:01.149Z,19.30
2022-08-22T01:21:10.635Z,18.30
2022-08-22T01:24:06.822Z,18.42
2022-08-22T01:27:13.930Z,18.40
2022-08-22T01:30:19.592Z,18.38
2022-08-22T01:33:20.312Z,18.47
2022-08-22T01:36:19.706Z,18.67
2022-08-22T01:39:05.134Z,18.02
2022-08-22T01:41:57.611Z,17.95
2022-08-22T01:44:40.978Z,18.27
2022-08-22T01:47:14.343Z,18.17
2022-08-22T01:49:47.326Z,17.80
2022-08-22T01:52:21.760Z,17.70
2022-08-22T01:54:55.206Z,17.83
2022-08-22T01:57:25.014Z,18.17
2022-08-22T01:59:56.247Z,18.35
2022-08-22T02:02:53.361Z,17.83
2022-08-22T02:05:31.069Z,18.23
2022-08-22T02:08:04.930Z,17.67
2022-08-22T02:10:51.785Z,18.00
2022-08-22T02:13:34.513Z,18.17
2022-08-22T02:16:10.362Z,18.20
2022-08-22T02:18:55.309Z,18.20
2022-08-22T02:21:30.520Z,18.40
2022-08-22T02:24:04.165Z,18.23
2022-08-22T02:26:46.638Z,18.13
2022-08-22T02:29:20.334Z,17.70
2022-08-22T02:31:57.612Z,18.00
2022-08-22T02:34:37.192Z,17.90
2022-08-22T02:37:11.580Z,17.95
2022-08-22T02:39:47.430Z,17.55
2022-08-22T02:42:29.607Z,18.37
2022-08-22T02:45:16.574Z,18.27
2022-08-22T02:47:56.966Z,18.15
2022-08-22T02:50:35.685Z,17.77
2022-08-22T02:53:10.099Z,18.10
2022-08-22T02:55:55.874Z,18.17
2022-08-22T02:58:33.972Z,18.75
2022-08-22T03:01:38.251Z,18.52
2022-08-22T03:04:24.420Z,17.98
2022-08-22T03:07:13.896Z,18.35
2022-08-22T03:09:49.989Z,19.58
2022-08-22T03:12:28.635Z,18.48
2022-08-22T03:15:03.522Z,17.80
2022-08-22T03:17:36.141Z,18.45
2022-08-22T03:20:09.372Z,17.90
2022-08-22T03:22:45.683Z,18.75
2022-08-22T03:25:23.548Z,18.97
2022-08-22T03:28:00.160Z,18.05
2022-08-22T03:30:35.162Z,17.93
2022-08-22T03:33:17.135Z,17.77
2022-08-22T03:36:01.352Z,18.42
2022-08-22T03:38:41.041Z,18.40
2022-08-22T03:41:40.132Z,18.45
2022-08-22T03:44:42.670Z,18.10
2022-08-22T03:47:47.843Z,18.20
2022-08-22T03:50:39.024Z,17.65
2022-08-22T03:53:42.465Z,18.20
2022-08-22T03:56:34.960Z,18.80
2022-08-22T03:59:28.427Z,18.13
2022-08-22T04:02:42.337Z,17.60
2022-08-22T04:05:40.614Z,18.20
2022-08-22T04:08:26.562Z,17.50
2022-08-22T04:11:53.059Z,17.38
2022-08-22T04:14:56.377Z,18.02
2022-08-22T04:17:45.157Z,17.90
2022-08-22T04:20:43.429Z,17.43
2022-08-22T04:23:41.045Z,18.50
2022-08-22T04:26:13.029Z,18.02
2022-08-22T04:28:46.515Z,17.70
2022-08-22T04:31:23.508Z,19.15
2022-08-22T04:33:55.170Z,18.00
2022-08-22T04:36:28.796Z,18.02
2022-08-22T04:39:03.709Z,17.30
2022-08-22T04:41:39.553Z,18.15
2022-08-22T04:44:13.454Z,17.70
2022-08-22T04:46:47.477Z,17.30
2022-08-22T04:49:22.699Z,18.63
2022-08-22T04:51:56.961Z,17.45
2022-08-22T04:54:38.875Z,17.23
2022-08-22T04:57:22.245Z,17.20
2022-08-22T04:59:51.625Z,17.58
2022-08-22T05:02:23.962Z,17.83
2022-08-22T05:04:59.176Z,17.77
2022-08-22T05:07:36.017Z,17.08
2022-08-22T05:10:11.968Z,17.67
2022-08-22T05:12:44.574Z,18.20
2022-08-22T05:15:23.069Z,17.92
2022-08-22T05:17:53.530Z,22.15
2022-08-22T05:20:25.408Z,18.63
2022-08-22T05:23:01.238Z,18.38
2022-08-22T05:25:33.233Z,18.83
2022-08-22T05:28:12.189Z,18.40
2022-08-22T05:30:41.635Z,24.50
2022-08-22T05:33:19.443Z,30.10
2022-08-22T05:35:55.795Z,24.90
2022-08-22T05:38:31.109Z,24.70
2022-08-22T05:41:04.956Z,30.90
2022-08-22T05:43:37.784Z,24.95
2022-08-22T05:46:09.912Z,22.77
2022-08-22T05:48:43.620Z,22.77
2022-08-22T05:51:19.069Z,25.80
2022-08-22T05:53:53.189Z,21.43
2022-08-22T05:56:27.516Z,21.70
2022-08-22T05:59:01.681Z,26.10
2022-08-22T06:01:34.139Z,21.40
2022-08-22T06:04:09.302Z,22.52
2022-08-22T06:06:43.180Z,23.33
2022-08-22T06:09:20.989Z,23.13
2022-08-22T06:11:54.623Z,20.65
2022-08-22T06:14:33.825Z,22.33
2022-08-22T06:17:07.741Z,20.97
2022-08-22T06:19:40.709Z,22.85
2022-08-22T06:22:09.437Z,21.65
2022-08-22T06:24:41.821Z,22.58
2022-08-22T06:27:13.330Z,21.77
2022-08-22T06:29:44.259Z,21.08
2022-08-22T06:32:44.349Z,21.42
2022-08-22T06:35:14.593Z,19.95
2022-08-22T06:37:46.978Z,21.02
2022-08-22T06:40:18.953Z,19.42
2022-08-22T06:42:50.125Z,20.98
2022-08-22T06:45:23.140Z,20.77
2022-08-22T06:47:56.329Z,20.40
2022-08-22T06:50:33.402Z,19.67
2022-08-22T06:53:06.944Z,21.42
2022-08-22T06:55:39.970Z,22.63
2022-08-22T06:58:15.694Z,23.77
2022-08-22T07:00:51.081Z,49.10
2022-08-22T07:03:37.629Z,50.03
2022-08-22T07:06:06.601Z,57.10
2022-08-22T07:08:39.069Z,54.10
2022-08-22T07:11:15.345Z,63.83
2022-08-22T07:13:50.494Z,61.20
2022-08-22T07:16:30.285Z,58.97
2022-08-22T07:18:58.960Z,59.92
2022-08-22T07:21:29.910Z,53.25
2022-08-22T07:24:02.063Z,54.03
2022-08-22T07:26:38.249Z,64.45
2022-08-22T07:29:11.457Z,57.22
2022-08-22T07:31:45.094Z,53.88
2022-08-22T07:34:31.275Z,53.40
2022-08-22T07:37:03.567Z,55.37
2022-08-22T07:39:38.227Z,54.27
2022-08-22T07:42:13.889Z,53.10
2022-08-22T07:45:03.429Z,55.33
2022-08-22T07:47:49.233Z,58.00
2022-08-22T07:50:24.042Z,59.05
2022-08-22T07:52:54.460Z,58.27
2022-08-22T07:55:25.264Z,59.90
2022-08-22T07:57:57.822Z,57.78
2022-08-22T08:00:27.159Z,59.42
2022-08-22T08:02:58.710Z,60.20
2022-08-22T08:05:29.256Z,59.15
2022-08-22T08:07:58.260Z,63.75
2022-08-22T08:10:31.447Z,55.45
2022-08-22T08:13:06.047Z,54.67
2022-08-22T08:15:37.043Z,54.55
2022-08-22T08:18:07.575Z,56.83
2022-08-22T08:20:37.423Z,56.63
2022-08-22T08:23:10.197Z,59.72
2022-08-22T08:25:53.389Z,58.88
2022-08-22T08:28:35.135Z,70.55
2022-08-22T08:31:20.914Z,73.80
2022-08-22T08:33:51.512Z,69.67
2022-08-22T08:36:33.872Z,74.03
2022-08-22T08:39:14.152Z,72.20
2022-08-22T08:42:23.420Z,71.78
2022-08-22T08:45:20.791Z,72.38
2022-08-22T08:48:07.224Z,66.25
2022-08-22T08:50:57.724Z,64.60
2022-08-22T08:54:03.771Z,65.38
2022-08-22T08:56:39.469Z,63.38
2022-08-22T08:59:27.030Z,65.63
2022-08-22T09:02:34.979Z,63.90
2022-08-22T09:05:27.334Z,66.15
2022-08-22T09:08:37.166Z,66.60
2022-08-22T09:11:57.478Z,64.85
2022-08-22T09:14:51.997Z,68.97
2022-08-22T09:17:43.708Z,70.32
2022-08-22T09:20:27.070Z,65.95
2022-08-22T09:23:28.869Z,67.97
2022-08-22T09:26:02.284Z,63.70
2022-08-22T09:28:46.257Z,65.43
2022-08-22T09:31:47.384Z,63.92
2022-08-22T09:34:30.146Z,66.63
2022-08-22T09:37:16.285Z,66.50
2022-08-22T09:40:15.731Z,65.10
2022-08-22T09:42:55.275Z,69.28
2022-08-22T09:45:47.275Z,71.78
2022-08-22T09:48:39.759Z,75.55
2022-08-22T09:51:31.739Z,72.10
2022-08-22T09:54:15.792Z,75.28
2022-08-22T09:57:15.113Z,78.93
2022-08-22T10:00:09.545Z,70.72
2022-08-22T10:02:44.932Z,68.83
2022-08-22T10:05:41.230Z,69.93
2022-08-22T10:08:23.515Z,72.13
2022-08-22T10:11:15.915Z,75.32
2022-08-22T10:14:00.465Z,75.72
2022-08-22T10:16:53.420Z,77.25
2022-08-22T10:19:27.927Z,76.25
2022-08-22T10:22:20.377Z,72.45
2022-08-22T10:25:05.892Z,73.65
2022-08-22T10:27:45.015Z,71.97
2022-08-22T10:30:18.337Z,73.85
2022-08-22T10:32:52.605Z,68.43
2022-08-22T10:35:33.926Z,65.93
2022-08-22T10:38:07.221Z,73.03
2022-08-22T10:40:48.388Z,72.07
2022-08-22T10:43:29.169Z,75.55
2022-08-22T10:46:06.740Z,75.10
2022-08-22T10:48:43.842Z,74.53
2022-08-22T10:51:21.052Z,76.25
2022-08-22T10:54:01.374Z,73.28
2022-08-22T10:56:43.812Z,67.38
2022-08-22T10:59:29.494Z,65.97
2022-08-22T11:02:14.809Z,78.78
2022-08-22T11:05:15.263Z,71.90
2022-08-22T11:07:48.721Z,69.28
2022-08-22T11:10:27.957Z,74.88
2022-08-22T11:13:12.135Z,67.63
2022-08-22T11:15:59.787Z,69.57
2022-08-22T11:18:39.692Z,63.13
2022-08-22T11:21:15.235Z,65.47
2022-08-22T11:23:51.809Z,65.15
2022-08-22T11:26:41.680Z,69.47
2022-08-22T11:29:43.445Z,65.38
2022-08-22T11:32:17.769Z,67.10
2022-08-22T11:35:00.165Z,65.43
2022-08-22T11:37:49.194Z,67.40
2022-08-22T11:40:37.263Z,61.70
2022-08-22T11:43:18.408Z,69.73
2022-08-22T11:45:50.776Z,72.38
2022-08-22T11:48:24.971Z,69.70
2022-08-22T11:51:03.500Z,71.63
2022-08-22T11:53:46.009Z,68.50
2022-08-22T11:56:22.742Z,66.13
2022-08-22T11:58:57.621Z,67.80
2022-08-22T12:01:36.804Z,71.93
2022-08-22T12:04:13.094Z,67.07
2022-08-22T12:06:59.997Z,66.87
2022-08-22T12:09:51.985Z,69.13
2022-08-22T12:12:42.177Z,67.45
2022-08-22T12:15:18.172Z,67.22
2022-08-22T12:18:08.697Z,68.78
2022-08-22T12:20:58.125Z,69.82
2022-08-22T12:24:19.195Z,64.93
2022-08-22T12:27:18.403Z,65.55
2022-08-22T12:30:23.389Z,63.78
2022-08-22T12:33:27.129Z,66.17
2022-08-22T12:36:18.795Z,61.13
2022-08-22T12:39:11.325Z,63.53
2022-08-22T12:42:06.881Z,63.72
2022-08-22T12:44:49.712Z,66.28
2022-08-22T12:47:34.406Z,72.27
2022-08-22T12:50:20.494Z,72.70
2022-08-22T12:53:07.056Z,71.85
2022-08-22T12:55:52.441Z,88.47
2022-08-22T12:58:33.744Z,75.85
2022-08-22T13:01:07.512Z,78.32
2022-08-22T13:03:41.697Z,74.72
2022-08-22T13:06:55.071Z,79.97
2022-08-22T13:09:30.746Z,79.43
2022-08-22T13:12:04.730Z,77.47
2022-08-22T13:14:35.161Z,84.03
2022-08-22T13:17:25.397Z,73.43
2022-08-22T13:20:04.510Z,81.88
2022-08-22T13:22:35.129Z,76.50
2022-08-22T13:25:08.587Z,71.55
2022-08-22T13:27:51.351Z,74.03
2022-08-22T13:30:22.365Z,68.93
2022-08-22T13:32:52.678Z,68.75
2022-08-22T13:35:25.612Z,70.00
2022-08-22T13:37:56.870Z,72.13
2022-08-22T13:40:30.658Z,102.03
2022-08-22T13:43:06.484Z,91.97
2022-08-22T13:45:37.178Z,83.90
2022-08-22T13:48:11.607Z,74.65
2022-08-22T13:50:56.984Z,64.70
2022-08-22T13:53:33.710Z,62.50
2022-08-22T13:56:15.603Z,67.18
2022-08-22T13:58:47.344Z,67.45
2022-08-22T14:01:38.834Z,73.18
2022-08-22T14:04:26.678Z,69.30
2022-08-22T14:07:24.201Z,66.00
2022-08-22T14:09:57.487Z,68.40
2022-08-22T14:12:50.120Z,67.13
2022-08-22T14:15:24.630Z,69.38
2022-08-22T14:17:59.781Z,66.15
2022-08-22T14:20:33.731Z,66.35
2022-08-22T14:23:07.509Z,64.95
2022-08-22T14:25:38.012Z,64.47
2022-08-22T14:28:14.188Z,65.78
2022-08-22T14:30:59.437Z,68.13
2022-08-22T14:33:35.044Z,70.47
2022-08-22T14:36:12.528Z,74.75
2022-08-22T14:38:46.502Z,77.82
2022-08-22T14:41:25.813Z,79.28
2022-08-22T14:44:01.448Z,79.25
2022-08-22T14:46:35.142Z,73.75
2022-08-22T14:49:29.475Z,66.28
2022-08-22T14:52:03.461Z,68.60
2022-08-22T14:54:32.823Z,67.07
2022-08-22T14:57:04.772Z,71.07
2022-08-22T14:59:50.250Z,71.57
2022-08-22T15:02:26.255Z,71.43
2022-08-22T15:04:56.253Z,68.63
2022-08-22T15:07:27.200Z,67.25
2022-08-22T15:10:01.127Z,76.47
2022-08-22T15:12:34.150Z,74.95
2022-08-22T15:15:07.475Z,72.70
2022-08-22T15:17:43.993Z,69.38
2022-08-22T15:20:28.488Z,67.97
2022-08-22T15:23:01.787Z,67.70
2022-08-22T15:25:34.418Z,64.40
2022-08-22T15:28:13.046Z,61.70
2022-08-22T15:30:48.219Z,62.53
2022-08-22T15:33:25.395Z,67.88
2022-08-22T15:35:56.624Z,72.28
2022-08-22T15:38:28.786Z,72.67
2022-08-22T15:40:57.894Z,71.88
2022-08-22T15:43:33.760Z,168.60
2022-08-22T15:46:24.882Z,77.30
2022-08-22T15:49:01.144Z,76.70
2022-08-22T15:51:38.534Z,70.90
2022-08-22T15:54:16.288Z,70.28
2022-08-22T15:57:16.594Z,67.70
2022-08-22T15:59:55.555Z,71.47
2022-08-22T16:02:35.257Z,70.07
2022-08-22T16:05:23.895Z,68.82
2022-08-22T16:08:03.778Z,68.38
2022-08-22T16:10:35.995Z,67.72
2022-08-22T16:13:37.984Z,68.70
2022-08-22T16:16:09.535Z,69.95
2022-08-22T16:19:21.509Z,71.45
2022-08-22T16:22:16.518Z,71.20
2022-08-22T16:25:11.374Z,72.53
2022-08-22T16:27:57.366Z,69.73
2022-08-22T16:30:38.849Z,72.07
2022-08-22T16:33:08.833Z,74.55
2022-08-22T16:36:22.373Z,71.00
2022-08-22T16:38:54.030Z,69.65
2022-08-22T16:41:29.972Z,68.80
2022-08-22T16:44:43.909Z,69.25
2022-08-22T16:47:15.914Z,69.78
2022-08-22T16:50:09.613Z,69.05
2022-08-22T16:52:57.642Z,69.65
2022-08-22T16:56:09.586Z,69.90
2022-08-22T16:59:27.565Z,73.95
2022-08-22T17:02:33.336Z,17.58
2022-08-22T17:05:18.614Z,17.30
2022-08-22T17:08:01.477Z,17.48
2022-08-22T17:10:43.285Z,17.80
2022-08-22T17:13:26.539Z,18.85
2022-08-22T17:16:07.701Z,19.63
2022-08-22T17:18:48.501Z,19.20
2022-08-22T17:21:25.855Z,18.92
2022-08-22T17:24:08.185Z,19.00
2022-08-22T17:26:55.789Z,18.90
2022-08-22T17:29:32.931Z,19.10
2022-08-22T17:32:08.818Z,18.95
2022-08-22T17:34:40.447Z,19.10
2022-08-22T17:37:12.410Z,18.70
2022-08-22T17:40:10.901Z,17.90
2022-08-22T17:42:52.587Z,18.97
2022-08-22T17:45:31.401Z,18.90
2022-08-22T17:48:07.882Z,19.08
2022-08-22T17:50:41.541Z,19.13
2022-08-22T17:53:16.253Z,18.98
2022-08-22T17:55:59.160Z,18.88
2022-08-22T17:58:43.442Z,19.83
2022-08-22T18:01:20.569Z,18.87
2022-08-22T18:04:00.572Z,18.17
2022-08-22T18:06:34.232Z,18.70
2022-08-22T18:09:14.136Z,17.67
2022-08-22T18:11:47.312Z,19.27
2022-08-22T18:14:26.839Z,19.40
2022-08-22T18:16:59.210Z,18.83
2022-08-22T18:19:40.696Z,19.42
2022-08-22T18:22:13.142Z,18.88
2022-08-22T18:24:49.495Z,17.48
2022-08-22T18:27:34.077Z,19.55
2022-08-22T18:30:15.142Z,20.73
2022-08-22T18:32:56.525Z,18.50
2022-08-22T18:35:32.497Z,20.67
2022-08-22T18:38:19.182Z,20.75
2022-08-22T18:40:53.525Z,21.20
2022-08-22T18:43:30.207Z,19.67
2022-08-22T18:46:04.174Z,20.17
2022-08-22T18:48:59.413Z,19.25
2022-08-22T18:51:34.993Z,19.02
2022-08-22T18:54:35.325Z,18.83
2022-08-22T18:57:11.197Z,18.65
2022-08-22T19:00:02.314Z,18.95
2022-08-22T19:03:09.364Z,18.27
2022-08-22T19:06:02.580Z,18.77
2022-08-22T19:09:03.116Z,19.75
2022-08-22T19:11:46.443Z,19.50
2022-08-22T19:14:48.589Z,17.08
2022-08-22T19:17:58.822Z,16.55
2022-08-22T19:20:48.904Z,16.80
2022-08-22T19:23:48.616Z,18.30
2022-08-22T19:26:39.195Z,19.00
2022-08-22T19:40:05.620Z,18.88
2022-08-22T19:42:39.825Z,17.67
2022-08-22T19:45:19.651Z,21.70
2022-08-22T19:48:00.332Z,19.45
2022-08-22T19:50:36.034Z,20.38
2022-08-22T19:53:25.357Z,19.48
2022-08-22T19:56:11.365Z,18.40
2022-08-22T19:58:52.342Z,18.45
2022-08-22T20:01:47.011Z,18.07
2022-08-22T20:04:43.572Z,18.17
2022-08-22T20:07:22.778Z,18.55
2022-08-22T20:10:05.321Z,18.50
2022-08-22T20:12:46.931Z,17.80
2022-08-22T20:15:20.852Z,17.83
2022-08-22T20:20:54.908Z,18.60
2022-08-22T20:23:28.346Z,17.92
2022-08-22T20:25:57.493Z,18.07
2022-08-22T20:28:39.124Z,18.05
2022-08-22T20:31:12.785Z,18.05
2022-08-22T20:33:43.855Z,18.02
2022-08-22T20:36:28.544Z,18.02
2022-08-22T20:39:01.561Z,18.27
2022-08-22T20:41:35.591Z,18.45
2022-08-22T20:44:12.550Z,18.80
2022-08-22T20:46:53.164Z,18.30
2022-08-22T20:49:26.554Z,17.70
2022-08-22T20:51:57.579Z,18.90
2022-08-22T20:54:28.236Z,18.88
2022-08-22T20:56:58.373Z,18.63
2022-08-22T20:59:32.404Z,19.05
2022-08-22T21:02:09.413Z,18.15
2022-08-22T21:04:44.117Z,17.77
2022-08-22T21:07:12.315Z,18.20
2022-08-22T21:09:57.771Z,18.25
2022-08-22T21:12:26.451Z,19.52
2022-08-22T21:14:55.976Z,18.50
2022-08-22T21:17:29.147Z,19.10
2022-08-22T21:20:21.153Z,18.65
2022-08-22T21:22:49.680Z,19.05
2022-08-22T21:25:17.912Z,18.50
2022-08-22T21:27:49.172Z,18.45
2022-08-22T21:30:25.856Z,18.13
2022-08-22T21:32:56.227Z,18.43
2022-08-22T21:35:29.590Z,17.90
2022-08-22T21:37:59.095Z,17.65
2022-08-22T21:40:33.702Z,18.08
2022-08-22T21:43:08.228Z,18.17
2022-08-22T21:45:44.358Z,18.40
2022-08-22T21:48:32.371Z,18.20
2022-08-22T21:51:21.910Z,18.30
2022-08-22T21:53:56.095Z,19.02
2022-08-22T21:56:38.589Z,19.13
2022-08-22T21:59:25.491Z,18.80
2022-08-22T22:01:55.692Z,18.65
2022-08-22T22:04:23.956Z,19.27
2022-08-22T22:06:52.002Z,18.30
2022-08-22T22:09:20.133Z,18.25
2022-08-22T22:11:48.317Z,19.83
2022-08-22T22:14:16.389Z,18.80
2022-08-22T22:16:46.477Z,18.58
2022-08-22T22:19:15.961Z,18.70
2022-08-22T22:21:44.418Z,18.63
2022-08-22T22:24:12.470Z,18.42
2022-08-22T22:26:40.557Z,19.02
2022-08-22T22:29:10.762Z,19.48
2022-08-22T22:31:38.937Z,19.05
2022-08-22T22:34:06.966Z,18.33
2022-08-22T22:36:36.717Z,18.90
2022-08-22T22:39:06.188Z,18.35
2022-08-22T22:41:34.253Z,18.40
2022-08-22T22:44:02.991Z,18.40
2022-08-22T22:46:31.384Z,18.55
2022-08-22T22:48:59.896Z,18.42
2022-08-22T22:51:27.962Z,18.70
2022-08-22T22:53:58.454Z,18.65
2022-08-22T22:56:26.720Z,19.20
2022-08-22T22:58:59.191Z,19.85
2022-08-22T23:01:59.992Z,18.50
2022-08-22T23:04:28.215Z,18.25
2022-08-22T23:06:56.309Z,18.52
2022-08-22T23:09:38.635Z,18.55
2022-08-22T23:12:12.943Z,18.70
2022-08-22T23:14:41.144Z,18.52
2022-08-22T23:17:09.577Z,18.90
2022-08-22T23:19:38.877Z,18.25
2022-08-22T23:22:08.755Z,19.00
2022-08-22T23:24:39.814Z,18.30
2022-08-22T23:27:08.902Z,18.65
2022-08-22T23:29:38.373Z,18.15
2022-08-22T23:32:06.671Z,18.38
2022-08-22T23:34:36.688Z,18.90
2022-08-22T23:37:07.817Z,18.15
2022-08-22T23:39:39.285Z,18.80
2022-08-22T23:42:09.854Z,18.70
2022-08-22T23:44:40.916Z,18.35
2022-08-22T23:47:13.306Z,18.55
2022-08-22T23:49:42.136Z,18.50
2022-08-22T23:52:12.136Z,18.70
2022-08-22T23:54:42.116Z,18.20
2022-08-22T23:57:12.160Z,18.17
2022-08-22T23:59:46.333Z,18.52
